createdAt,value
2019-06-20T00:03:21.789Z,21.75
2019-06-20T00:05:54.480Z,21.68
2019-06-20T00:08:24.737Z,21.63
2019-06-20T00:10:55.018Z,21.62
2019-06-20T00:13:25.344Z,21.64
2019-06-20T00:15:55.594Z,21.57
2019-06-20T00:18:26.207Z,21.53
2019-06-20T00:20:56.596Z,21.54
2019-06-20T00:23:27.822Z,21.46
2019-06-20T00:25:58.200Z,21.48
2019-06-20T00:28:29.659Z,21.47
2019-06-20T00:30:59.952Z,21.44
2019-06-20T00:33:30.680Z,21.43
2019-06-20T00:36:00.915Z,21.36
2019-06-20T00:38:31.254Z,21.41
2019-06-20T00:41:01.508Z,21.39
2019-06-20T00:43:31.835Z,21.39
2019-06-20T00:46:02.060Z,21.35
2019-06-20T00:48:39.443Z,21.29
2019-06-20T00:51:09.694Z,21.24
2019-06-20T00:53:39.905Z,21.19
2019-06-20T00:56:10.213Z,21.11
2019-06-20T00:58:40.557Z,21.03
2019-06-20T01:01:19.207Z,21.00
2019-06-20T01:03:49.430Z,21.05
2019-06-20T01:06:19.738Z,21.00
2019-06-20T01:08:49.998Z,20.95
2019-06-20T01:11:20.261Z,20.89
2019-06-20T01:13:52.859Z,20.85
2019-06-20T01:16:23.096Z,20.84
2019-06-20T01:18:53.597Z,20.80
2019-06-20T01:21:24.073Z,20.69
2019-06-20T01:23:54.425Z,20.61
2019-06-20T01:26:24.655Z,20.54
2019-06-20T01:28:55.254Z,20.51
2019-06-20T01:31:25.660Z,20.44
2019-06-20T01:33:55.979Z,20.38
2019-06-20T01:36:26.248Z,20.36
2019-06-20T01:38:56.514Z,20.34
2019-06-20T01:41:27.322Z,20.30
2019-06-20T01:43:57.695Z,20.31
2019-06-20T01:46:28.017Z,20.31
2019-06-20T01:48:58.483Z,20.29
2019-06-20T01:51:29.007Z,20.28
2019-06-20T01:53:59.415Z,20.30
2019-06-20T01:56:33.434Z,20.29
2019-06-20T01:59:03.706Z,20.23
2019-06-20T02:01:34.026Z,20.19
2019-06-20T02:04:04.266Z,20.21
2019-06-20T02:06:34.534Z,20.26
2019-06-20T02:09:11.931Z,20.34
2019-06-20T02:11:42.290Z,20.38
2019-06-20T02:14:12.567Z,20.39
2019-06-20T02:16:42.983Z,20.46
2019-06-20T02:19:13.295Z,20.45
2019-06-20T02:21:43.615Z,20.49
2019-06-20T02:24:17.945Z,20.48
2019-06-20T02:26:48.312Z,20.46
2019-06-20T02:29:18.717Z,20.49
2019-06-20T02:31:48.921Z,20.47
2019-06-20T02:34:19.259Z,20.48
2019-06-20T02:36:50.583Z,20.52
2019-06-20T02:39:21.003Z,20.56
2019-06-20T02:41:51.335Z,20.56
2019-06-20T02:44:30.044Z,20.55
2019-06-20T02:46:53.882Z,20.59
2019-06-20T02:49:24.143Z,20.58
2019-06-20T02:51:54.411Z,20.54
2019-06-20T02:54:25.106Z,20.56
2019-06-20T02:56:55.722Z,20.61
2019-06-20T02:59:25.963Z,20.68
2019-06-20T03:01:56.362Z,20.77
2019-06-20T03:04:26.689Z,20.87
2019-06-20T03:06:57.071Z,20.94
2019-06-20T03:09:27.711Z,21.01
2019-06-20T03:11:58.217Z,21.08
2019-06-20T03:14:44.295Z,21.12
2019-06-20T03:17:00.454Z,21.20
2019-06-20T03:19:30.789Z,21.21
2019-06-20T03:22:03.462Z,21.16
2019-06-20T03:24:35.205Z,21.09
2019-06-20T03:27:05.653Z,20.98
2019-06-20T03:29:36.046Z,20.87
2019-06-20T03:32:06.346Z,20.72
2019-06-20T03:34:38.276Z,20.62
2019-06-20T03:37:09.058Z,20.49
2019-06-20T03:39:40.564Z,20.43
2019-06-20T03:42:10.972Z,20.33
2019-06-20T03:44:41.273Z,20.19
2019-06-20T03:47:11.556Z,20.11
2019-06-20T03:49:41.755Z,20.10
2019-06-20T03:52:27.839Z,20.00
2019-06-20T03:54:58.057Z,19.95
2019-06-20T03:57:28.337Z,19.93
2019-06-20T03:59:58.674Z,19.95
2019-06-20T04:02:28.906Z,20.00
2019-06-20T04:04:59.413Z,20.04
2019-06-20T04:07:29.668Z,20.09
2019-06-20T04:09:59.962Z,20.11
2019-06-20T04:12:30.233Z,20.08
2019-06-20T04:15:00.505Z,20.03
2019-06-20T04:17:30.874Z,19.91
2019-06-20T04:20:01.150Z,19.84
2019-06-20T04:22:31.477Z,19.76
2019-06-20T04:25:01.799Z,19.77
2019-06-20T04:27:32.220Z,19.71
2019-06-20T04:30:02.492Z,19.61
2019-06-20T04:32:35.066Z,19.65
2019-06-20T04:35:07.072Z,19.56
2019-06-20T04:37:37.291Z,19.54
2019-06-20T04:40:07.590Z,19.61
2019-06-20T04:42:37.890Z,19.67
2019-06-20T04:45:17.581Z,19.67
2019-06-20T04:47:47.815Z,19.66
2019-06-20T04:50:18.096Z,19.73
2019-06-20T04:52:48.373Z,19.73
2019-06-20T04:55:18.640Z,19.69
2019-06-20T04:57:49.156Z,19.71
2019-06-20T05:00:19.467Z,19.66
2019-06-20T05:02:49.726Z,19.70
2019-06-20T05:05:20.029Z,19.67
2019-06-20T05:07:50.426Z,19.66
2019-06-20T05:10:21.773Z,19.66
2019-06-20T05:12:56.108Z,19.63
2019-06-20T05:15:26.759Z,19.53
2019-06-20T05:17:57.006Z,19.54
2019-06-20T05:20:27.323Z,19.48
2019-06-20T05:22:57.599Z,19.41
2019-06-20T05:25:28.171Z,19.37
2019-06-20T05:27:58.438Z,19.37
2019-06-20T05:30:28.874Z,19.38
2019-06-20T05:33:09.302Z,19.40
2019-06-20T05:35:39.559Z,19.42
2019-06-20T05:38:09.866Z,19.43
2019-06-20T05:40:40.119Z,19.41
2019-06-20T05:43:10.390Z,19.40
2019-06-20T05:45:44.469Z,19.41
2019-06-20T05:48:14.086Z,19.51
2019-06-20T05:50:45.524Z,19.48
2019-06-20T05:53:15.818Z,19.45
2019-06-20T05:55:46.112Z,19.51
2019-06-20T05:58:17.671Z,19.55
2019-06-20T06:00:47.871Z,19.56
2019-06-20T06:03:18.974Z,19.62
2019-06-20T06:05:49.205Z,19.74
2019-06-20T06:08:19.518Z,19.83
2019-06-20T06:10:49.763Z,19.88
2019-06-20T06:13:20.639Z,19.90
2019-06-20T06:15:50.991Z,19.98
2019-06-20T06:18:21.275Z,20.06
2019-06-20T06:20:51.585Z,20.19
2019-06-20T06:23:21.849Z,20.26
2019-06-20T06:25:58.113Z,20.37
2019-06-20T06:28:28.400Z,20.43
2019-06-20T06:30:58.722Z,20.52
2019-06-20T06:33:28.917Z,20.61
2019-06-20T06:35:59.206Z,20.70
2019-06-20T06:38:29.431Z,20.77
2019-06-20T06:41:01.026Z,20.82
2019-06-20T06:43:32.321Z,20.86
2019-06-20T06:46:03.757Z,20.89
2019-06-20T06:48:33.983Z,20.90
2019-06-20T06:51:04.266Z,20.92
2019-06-20T06:53:34.697Z,20.90
2019-06-20T06:56:05.425Z,20.89
2019-06-20T06:58:35.711Z,20.88
2019-06-20T07:01:09.986Z,20.84
2019-06-20T07:03:37.926Z,20.74
2019-06-20T07:06:08.143Z,20.79
2019-06-20T07:08:41.902Z,20.73
2019-06-20T07:11:12.061Z,20.75
2019-06-20T07:13:42.377Z,20.80
2019-06-20T07:16:12.617Z,20.88
2019-06-20T07:18:42.836Z,20.87
2019-06-20T07:21:13.112Z,20.95
2019-06-20T07:23:43.381Z,20.98
2019-06-20T07:26:14.824Z,21.05
2019-06-20T07:28:45.101Z,21.40
2019-06-20T07:31:15.347Z,21.81
2019-06-20T07:33:45.623Z,22.26
2019-06-20T07:36:25.637Z,22.64
2019-06-20T07:38:55.963Z,23.07
2019-06-20T07:41:26.249Z,23.55
2019-06-20T07:43:56.708Z,23.61
2019-06-20T07:46:26.915Z,23.83
2019-06-20T07:48:57.189Z,24.12
2019-06-20T07:51:29.826Z,24.15
2019-06-20T07:54:00.442Z,24.44
2019-06-20T07:56:30.697Z,24.67
2019-06-20T07:59:00.908Z,24.86
2019-06-20T08:01:31.157Z,24.93
2019-06-20T08:04:05.100Z,24.99
2019-06-20T08:06:35.374Z,25.16
2019-06-20T08:09:08.081Z,25.32
2019-06-20T08:11:38.309Z,25.32
2019-06-20T08:14:08.520Z,25.46
2019-06-20T08:16:38.750Z,25.35
2019-06-20T08:19:16.451Z,25.40
2019-06-20T08:21:46.783Z,25.84
2019-06-20T08:24:17.006Z,25.93
2019-06-20T08:26:47.257Z,26.07
2019-06-20T08:29:21.092Z,26.11
2019-06-20T08:31:49.842Z,26.10
2019-06-20T08:34:21.036Z,26.00
2019-06-20T08:36:51.335Z,25.78
2019-06-20T08:39:21.619Z,25.63
2019-06-20T08:41:51.845Z,25.54
2019-06-20T08:44:22.093Z,25.46
2019-06-20T08:47:01.134Z,25.39
2019-06-20T08:49:31.963Z,25.37
2019-06-20T08:52:03.434Z,25.50
2019-06-20T08:54:33.916Z,25.64
2019-06-20T08:57:06.029Z,25.68
2019-06-20T08:59:41.437Z,25.65
2019-06-20T09:02:11.689Z,25.47
2019-06-20T09:04:42.062Z,25.51
2019-06-20T09:07:12.276Z,25.50
2019-06-20T09:09:42.571Z,25.59
2019-06-20T09:12:12.849Z,25.67
2019-06-20T09:14:46.908Z,25.76
2019-06-20T09:17:17.141Z,25.67
2019-06-20T09:19:47.421Z,25.48
2019-06-20T09:22:17.660Z,25.51
2019-06-20T09:24:47.926Z,25.55
2019-06-20T09:30:25.860Z,25.80
2019-06-20T09:32:56.253Z,26.21
2019-06-20T09:35:26.617Z,26.75
2019-06-20T09:37:57.157Z,27.05
2019-06-20T09:40:28.891Z,26.91
2019-06-20T09:42:59.258Z,26.85
2019-06-20T09:45:29.894Z,27.41
2019-06-20T09:48:00.130Z,27.89
2019-06-20T09:50:31.438Z,28.13
2019-06-20T09:53:01.619Z,27.81
2019-06-20T09:55:53.724Z,28.04
2019-06-20T09:58:24.020Z,28.62
2019-06-20T10:00:55.104Z,28.97
2019-06-20T10:03:25.599Z,28.84
2019-06-20T10:05:56.665Z,28.75
2019-06-20T10:08:27.373Z,28.98
2019-06-20T10:10:57.671Z,29.34
2019-06-20T10:13:27.934Z,29.19
2019-06-20T10:15:58.286Z,28.89
2019-06-20T10:18:28.510Z,28.96
2019-06-20T10:20:58.853Z,29.23
2019-06-20T10:23:29.145Z,28.91
2019-06-20T10:25:59.404Z,29.05
2019-06-20T10:28:29.687Z,29.17
2019-06-20T10:30:59.920Z,28.87
2019-06-20T10:33:30.250Z,29.00
2019-06-20T10:36:00.940Z,29.48
2019-06-20T10:38:31.260Z,30.02
2019-06-20T10:41:01.559Z,30.35
2019-06-20T10:43:31.914Z,30.53
2019-06-20T10:46:02.224Z,30.31
2019-06-20T10:48:32.478Z,29.98
2019-06-20T10:51:22.154Z,29.55
2019-06-20T10:53:53.391Z,29.70
2019-06-20T10:56:23.786Z,29.47
2019-06-20T10:58:54.137Z,29.63
2019-06-20T11:01:24.374Z,29.32
2019-06-20T11:03:54.655Z,29.02
2019-06-20T11:06:25.015Z,29.17
2019-06-20T11:08:55.232Z,29.34
2019-06-20T11:11:25.586Z,29.72
2019-06-20T11:13:55.896Z,30.03
2019-06-20T11:16:26.165Z,30.32
2019-06-20T11:18:58.843Z,30.46
2019-06-20T11:21:29.088Z,30.36
2019-06-20T11:23:59.308Z,30.12
2019-06-20T11:26:29.487Z,29.95
2019-06-20T11:28:59.772Z,29.90
2019-06-20T11:31:47.794Z,30.22
2019-06-20T11:34:17.728Z,30.46
2019-06-20T11:36:48.068Z,30.79
2019-06-20T11:39:18.344Z,31.03
2019-06-20T11:41:48.600Z,30.76
2019-06-20T11:44:18.871Z,30.49
2019-06-20T11:47:01.435Z,30.67
2019-06-20T11:49:31.804Z,30.32
2019-06-20T11:52:02.115Z,30.67
2019-06-20T11:54:33.312Z,30.86
2019-06-20T11:57:04.266Z,31.04
2019-06-20T11:59:35.005Z,30.96
2019-06-20T12:02:05.579Z,31.14
2019-06-20T12:04:35.851Z,31.25
2019-06-20T12:07:06.037Z,31.37
2019-06-20T12:09:36.619Z,30.91
2019-06-20T12:12:06.861Z,30.33
2019-06-20T12:14:39.713Z,30.14
2019-06-20T12:17:10.349Z,29.95
2019-06-20T12:19:40.872Z,29.51
2019-06-20T12:22:12.566Z,29.81
2019-06-20T12:24:43.011Z,29.72
2019-06-20T12:27:13.294Z,30.07
2019-06-20T12:29:50.784Z,30.16
2019-06-20T12:32:22.081Z,29.78
2019-06-20T12:34:52.438Z,29.37
2019-06-20T12:37:22.728Z,28.85
2019-06-20T12:39:53.030Z,28.68
2019-06-20T12:42:24.698Z,28.73
2019-06-20T12:44:55.132Z,28.65
2019-06-20T12:47:25.480Z,28.69
2019-06-20T12:49:55.741Z,28.58
2019-06-20T12:52:25.985Z,28.53
2019-06-20T12:54:56.362Z,28.31
2019-06-20T12:57:28.061Z,28.22
2019-06-20T12:59:58.407Z,28.06
2019-06-20T13:02:28.982Z,27.97
2019-06-20T13:04:59.245Z,28.12
2019-06-20T13:07:29.582Z,28.08
2019-06-20T13:10:00.160Z,27.90
2019-06-20T13:12:30.429Z,27.79
2019-06-20T13:15:00.767Z,27.62
2019-06-20T13:17:31.384Z,27.55
2019-06-20T13:20:01.624Z,28.08
2019-06-20T13:22:31.970Z,28.24
2019-06-20T13:25:02.210Z,28.01
2019-06-20T13:27:32.461Z,27.99
2019-06-20T13:30:21.099Z,28.04
2019-06-20T13:32:51.516Z,28.05
2019-06-20T13:35:21.731Z,28.32
2019-06-20T13:37:52.003Z,28.14
2019-06-20T13:40:22.310Z,27.84
2019-06-20T13:42:54.685Z,28.05
2019-06-20T13:45:27.419Z,28.31
2019-06-20T13:47:57.928Z,28.51
2019-06-20T13:50:29.806Z,28.42
2019-06-20T13:53:00.076Z,28.62
2019-06-20T13:55:30.294Z,28.78
2019-06-20T13:58:05.046Z,28.94
2019-06-20T14:00:35.286Z,28.86
2019-06-20T14:03:05.554Z,29.08
2019-06-20T14:05:35.778Z,29.14
2019-06-20T14:08:06.064Z,29.24
2019-06-20T14:10:36.704Z,28.89
2019-06-20T14:13:18.753Z,28.65
2019-06-20T14:15:38.901Z,29.00
2019-06-20T14:18:09.150Z,29.20
2019-06-20T14:20:39.379Z,29.41
2019-06-20T14:23:10.942Z,29.62
2019-06-20T14:25:42.440Z,29.83
2019-06-20T14:28:13.235Z,29.04
2019-06-20T14:30:45.014Z,28.84
2019-06-20T14:33:15.530Z,29.23
2019-06-20T14:35:47.398Z,29.58
2019-06-20T14:38:18.166Z,30.08
2019-06-20T14:40:49.888Z,30.38
2019-06-20T14:43:20.367Z,30.44
2019-06-20T14:45:50.825Z,30.35
2019-06-20T14:48:21.126Z,30.58
2019-06-20T14:51:01.563Z,30.54
2019-06-20T14:53:31.873Z,30.77
2019-06-20T14:56:02.125Z,30.77
2019-06-20T14:58:33.426Z,30.46
2019-06-20T15:01:03.739Z,30.12
2019-06-20T15:03:33.999Z,29.94
2019-06-20T15:06:04.568Z,29.87
2019-06-20T15:08:34.802Z,29.64
2019-06-20T15:11:05.080Z,29.41
2019-06-20T15:13:35.285Z,29.40
2019-06-20T15:16:09.874Z,29.16
2019-06-20T15:18:40.502Z,29.44
2019-06-20T15:21:10.748Z,29.89
2019-06-20T15:23:41.149Z,30.20
2019-06-20T15:26:11.505Z,30.42
2019-06-20T15:28:41.755Z,30.56
2019-06-20T15:31:11.964Z,30.66
2019-06-20T15:33:43.702Z,30.52
2019-06-20T15:36:14.131Z,30.19
2019-06-20T15:38:44.411Z,29.85
2019-06-20T15:41:14.729Z,29.42
2019-06-20T15:43:44.930Z,29.34
2019-06-20T15:46:19.243Z,29.48
2019-06-20T15:48:49.538Z,29.52
2019-06-20T15:51:20.180Z,29.16
2019-06-20T15:53:50.436Z,28.94
2019-06-20T15:56:20.796Z,28.90
2019-06-20T15:58:52.111Z,28.51
2019-06-20T16:01:24.738Z,28.33
2019-06-20T16:03:55.057Z,27.94
2019-06-20T16:06:27.704Z,27.39
2019-06-20T16:08:58.005Z,27.18
2019-06-20T16:11:28.292Z,27.02
2019-06-20T16:13:59.964Z,26.91
2019-06-20T16:16:31.227Z,26.78
2019-06-20T16:19:01.498Z,26.67
2019-06-20T16:21:32.992Z,26.51
2019-06-20T16:24:03.245Z,26.42
2019-06-20T16:26:33.520Z,26.29
2019-06-20T16:29:03.869Z,26.26
2019-06-20T16:31:34.175Z,26.28
2019-06-20T16:34:05.742Z,26.30
2019-06-20T16:37:09.008Z,26.28
2019-06-20T16:39:28.259Z,26.24
2019-06-20T16:41:58.493Z,26.19
2019-06-20T16:44:28.699Z,26.30
2019-06-20T16:46:59.274Z,26.32
2019-06-20T16:49:29.534Z,26.34
2019-06-20T16:51:59.798Z,26.35
2019-06-20T16:54:30.043Z,26.30
2019-06-20T16:57:00.318Z,26.17
2019-06-20T16:59:30.563Z,25.84
2019-06-20T17:02:10.223Z,25.76
2019-06-20T17:04:40.490Z,25.78
2019-06-20T17:07:10.751Z,25.63
2019-06-20T17:09:41.028Z,25.62
2019-06-20T17:12:11.347Z,25.55
2019-06-20T17:14:47.922Z,25.47
2019-06-20T17:17:18.168Z,25.35
2019-06-20T17:19:48.941Z,25.37
2019-06-20T17:22:19.174Z,25.32
2019-06-20T17:24:49.410Z,25.26
2019-06-20T17:27:20.337Z,25.17
2019-06-20T17:29:50.618Z,25.14
2019-06-20T17:32:20.882Z,25.10
2019-06-20T17:34:51.148Z,25.10
2019-06-20T17:37:23.882Z,25.02
2019-06-20T17:39:54.504Z,24.97
2019-06-20T17:42:24.764Z,24.86
2019-06-20T17:44:55.026Z,24.76
2019-06-20T17:47:25.278Z,24.65
2019-06-20T17:49:55.644Z,24.50
2019-06-20T17:52:25.968Z,24.38
2019-06-20T17:55:03.693Z,24.31
2019-06-20T17:57:33.910Z,24.21
2019-06-20T18:00:04.133Z,24.15
2019-06-20T18:02:34.551Z,23.93
2019-06-20T18:05:05.984Z,23.87
2019-06-20T18:07:53.841Z,23.84
2019-06-20T18:10:24.205Z,23.82
2019-06-20T18:12:54.478Z,23.73
2019-06-20T18:15:25.287Z,23.63
2019-06-20T18:17:55.536Z,23.62
2019-06-20T18:20:27.014Z,23.53
2019-06-20T18:22:57.363Z,23.44
2019-06-20T18:25:27.621Z,23.39
2019-06-20T18:27:57.934Z,23.33
2019-06-20T18:30:36.530Z,23.26
2019-06-20T18:33:06.807Z,23.16
2019-06-20T18:35:39.579Z,23.10
2019-06-20T18:38:09.896Z,23.03
2019-06-20T18:40:40.473Z,22.95
2019-06-20T18:43:11.058Z,22.92
2019-06-20T18:45:41.450Z,22.85
2019-06-20T18:48:13.326Z,22.75
2019-06-20T18:50:43.991Z,22.65
2019-06-20T18:53:17.344Z,22.58
2019-06-20T18:55:49.140Z,22.48
2019-06-20T18:58:19.706Z,22.41
2019-06-20T19:00:50.175Z,22.36
2019-06-20T19:03:21.466Z,22.35
2019-06-20T19:05:53.106Z,22.32
2019-06-20T19:08:23.389Z,22.24
2019-06-20T19:10:54.870Z,22.21
2019-06-20T19:13:25.313Z,22.13
2019-06-20T19:15:55.976Z,22.13
2019-06-20T19:18:26.508Z,22.12
2019-06-20T19:20:56.987Z,22.08
2019-06-20T19:23:27.378Z,22.02
2019-06-20T19:25:57.840Z,21.93
2019-06-20T19:28:28.442Z,21.87
2019-06-20T19:33:29.315Z,21.71
2019-06-20T19:35:59.773Z,21.62
2019-06-20T19:38:30.754Z,21.52
2019-06-20T19:41:01.299Z,21.42
2019-06-20T19:43:35.728Z,21.32
2019-06-20T19:46:06.060Z,21.24
2019-06-20T19:48:36.961Z,21.14
2019-06-20T19:51:09.377Z,21.03
2019-06-20T19:53:39.704Z,20.93
2019-06-20T19:56:10.117Z,20.86
2019-06-20T19:58:41.042Z,20.76
2019-06-20T20:01:11.676Z,20.67
2019-06-20T20:03:41.935Z,20.59
2019-06-20T20:06:12.152Z,20.51
2019-06-20T20:08:42.404Z,20.44
2019-06-20T20:11:12.930Z,20.38
2019-06-20T20:13:43.296Z,20.30
2019-06-20T20:16:13.577Z,20.22
2019-06-20T20:18:43.794Z,20.13
2019-06-20T20:21:14.099Z,20.05
2019-06-20T20:23:44.317Z,19.99
2019-06-20T20:26:15.930Z,19.92
2019-06-20T20:28:46.573Z,19.82
2019-06-20T20:31:16.958Z,19.74
2019-06-20T20:33:47.222Z,19.67
2019-06-20T20:36:24.860Z,19.50
2019-06-20T20:38:49.406Z,19.49
2019-06-20T20:41:19.688Z,19.45
2019-06-20T20:43:49.928Z,19.44
2019-06-20T20:46:20.127Z,19.39
2019-06-20T20:48:50.391Z,19.33
2019-06-20T20:51:31.997Z,19.28
2019-06-20T20:54:02.281Z,19.28
2019-06-20T20:56:33.777Z,19.28
2019-06-20T20:59:04.047Z,19.27
2019-06-20T21:01:35.590Z,19.18
2019-06-20T21:04:06.154Z,19.09
2019-06-20T21:06:38.729Z,19.11
2019-06-20T21:09:09.334Z,19.10
2019-06-20T21:11:40.586Z,19.12
2019-06-20T21:14:10.803Z,19.11
2019-06-20T21:16:41.126Z,19.12
2019-06-20T21:19:11.677Z,19.08
2019-06-20T21:21:41.948Z,19.04
2019-06-20T21:24:12.185Z,19.00
2019-06-20T21:26:49.399Z,19.02
2019-06-20T21:29:14.340Z,19.04
2019-06-20T21:31:45.670Z,18.99
2019-06-20T21:34:17.000Z,19.07
2019-06-20T21:36:47.282Z,19.03
2019-06-20T21:39:17.652Z,19.01
2019-06-20T21:41:47.941Z,18.97
2019-06-20T21:44:18.195Z,18.94
2019-06-20T21:46:48.894Z,18.85
2019-06-20T21:49:19.082Z,18.78
2019-06-20T21:51:49.351Z,18.76
2019-06-20T21:54:19.578Z,18.77
2019-06-20T21:56:49.935Z,18.72
2019-06-20T21:59:22.685Z,18.66
2019-06-20T22:01:52.943Z,18.58
2019-06-20T22:04:23.247Z,18.52
2019-06-20T22:06:53.578Z,18.44
2019-06-20T22:09:24.718Z,18.43
2019-06-20T22:11:55.035Z,18.45
2019-06-20T22:14:48.676Z,18.48
2019-06-20T22:17:18.931Z,18.43
2019-06-20T22:19:49.263Z,18.39
2019-06-20T22:22:19.470Z,18.31
2019-06-20T22:24:49.764Z,18.20
2019-06-20T22:27:20.352Z,18.16
2019-06-20T22:29:50.999Z,18.10
2019-06-20T22:32:21.260Z,18.09
2019-06-20T22:34:51.549Z,18.10
2019-06-20T22:37:21.769Z,18.07
2019-06-20T22:39:52.004Z,18.08
2019-06-20T22:42:22.615Z,18.05
2019-06-20T22:44:53.961Z,17.99
2019-06-20T22:47:24.271Z,17.94
2019-06-20T22:49:54.599Z,17.90
2019-06-20T22:52:24.962Z,17.88
2019-06-20T22:54:55.180Z,17.91
2019-06-20T22:57:31.808Z,17.86
2019-06-20T23:00:02.087Z,17.78
2019-06-20T23:02:32.438Z,17.72
2019-06-20T23:05:02.635Z,17.62
2019-06-20T23:07:32.914Z,17.49
2019-06-20T23:10:11.437Z,17.34
2019-06-20T23:12:41.855Z,17.25
2019-06-20T23:15:12.193Z,17.15
2019-06-20T23:17:42.450Z,17.10
2019-06-20T23:20:12.753Z,17.04
2019-06-20T23:22:43.038Z,16.98
2019-06-20T23:25:13.555Z,16.92
2019-06-20T23:27:43.785Z,16.88
2019-06-20T23:30:15.610Z,16.85
2019-06-20T23:32:45.830Z,16.77
2019-06-20T23:35:16.118Z,16.70
2019-06-20T23:37:46.648Z,16.64
2019-06-20T23:40:16.884Z,16.59
2019-06-20T23:42:47.100Z,16.52
2019-06-20T23:45:17.898Z,16.49
2019-06-20T23:47:48.123Z,16.45
2019-06-20T23:50:18.748Z,16.41
2019-06-20T23:52:56.459Z,16.35
2019-06-20T23:55:26.720Z,16.29
2019-06-20T23:57:56.963Z,16.21
